Time;durP1;ratioP1;P1;durP2;ratioP2;P2;SDS_P1;SDS_P2;PMS_P1;PMS_P2;Temp;Humidity;BMP_temperature;BMP_pressure;BME280_temperature;BME280_humidity;BME280_pressure;Samples;Min_cycle;Max_cycle;Signal;HPM_P1;HPM_P2
2021/12/25 00:02:24;;;;;;;46.03;24.58;;;11.00;99.90;;;;;;4986126;28;114371;-67
2021/12/25 00:04:50;;;;;;;43.25;21.88;;;11.10;99.90;;;;;;4986489;28;112725;-66
2021/12/25 00:07:16;;;;;;;62.55;26.35;;;11.10;99.90;;;;;;5005342;28;112598;-68
2021/12/25 00:09:42;;;;;;;48.42;22.42;;;11.00;99.90;;;;;;5004870;28;112597;-66
2021/12/25 00:12:08;;;;;;;41.10;20.00;;;11.00;99.90;;;;;;4985928;28;114604;-68
2021/12/25 00:14:34;;;;;;;48.00;20.63;;;11.00;99.90;;;;;;4968731;28;113741;-66
2021/12/25 00:17:00;;;;;;;47.03;20.08;;;10.90;99.90;;;;;;4986221;28;112427;-67
2021/12/25 00:19:26;;;;;;;42.92;19.63;;;11.00;99.90;;;;;;5004457;28;112840;-68
2021/12/25 00:21:52;;;;;;;45.15;17.70;;;10.90;99.90;;;;;;5029252;22;115154;-68
2021/12/25 00:24:18;;;;;;;50.50;19.55;;;10.90;99.90;;;;;;4989003;28;114869;-68
2021/12/25 00:27:09;;;;;;;60.47;25.20;;;10.90;99.90;;;;;;5016853;22;114566;-67
2021/12/25 00:30:11;;;;;;;38.05;16.73;;;11.00;99.90;;;;;;4984858;28;112519;-65
2021/12/25 00:34:49;;;;;;;63.53;25.10;;;11.10;99.90;;;;;;4985891;28;112401;-66
2021/12/25 00:37:15;;;;;;;57.20;21.83;;;11.10;99.90;;;;;;5004771;28;112687;-66
2021/12/25 00:39:43;;;;;;;37.92;17.42;;;11.10;99.90;;;;;;5003691;28;112783;-66
2021/12/25 00:42:10;;;;;;;47.38;18.83;;;11.10;99.90;;;;;;4986161;28;113977;-66
2021/12/25 00:44:37;;;;;;;38.92;15.80;;;11.10;99.90;;;;;;5003199;28;113736;-68
2021/12/25 00:47:06;;;;;;;46.40;19.52;;;11.20;99.90;;;;;;5004451;28;112321;-67
2021/12/25 00:49:32;;;;;;;40.67;19.35;;;11.20;99.90;;;;;;5003659;28;112624;-67
2021/12/25 00:51:58;;;;;;;37.38;18.45;;;11.20;99.90;;;;;;5003290;28;112932;-67
2021/12/25 00:54:24;;;;;;;35.78;16.05;;;11.20;99.90;;;;;;5003714;28;112903;-66
2021/12/25 00:56:50;;;;;;;35.45;16.10;;;11.20;99.90;;;;;;5004728;28;112352;-66
2021/12/25 00:59:16;;;;;;;35.80;15.70;;;11.10;99.90;;;;;;5004770;28;112353;-67
2021/12/25 01:01:44;;;;;;;29.25;15.05;;;11.10;99.90;;;;;;5003555;28;113002;-65
2021/12/25 01:04:09;;;;;;;27.98;14.50;;;11.10;99.90;;;;;;4984193;28;113094;-66
2021/12/25 01:06:35;;;;;;;29.73;14.48;;;11.10;99.90;;;;;;5004450;28;113007;-65
2021/12/25 01:09:02;;;;;;;45.17;16.75;;;11.00;99.90;;;;;;4985710;28;112638;-66
2021/12/25 01:11:30;;;;;;;39.17;15.73;;;11.00;99.90;;;;;;5002958;28;114347;-67
2021/12/25 01:14:09;;;;;;;38.42;15.45;;;11.00;99.90;;;;;;5003514;28;113969;-66
2021/12/25 01:33:00;;;;;;;27.27;14.32;;;11.00;99.90;;;;;;4982900;28;112970;-67
2021/12/25 01:48:35;;;;;;;26.13;11.82;;;11.00;99.90;;;;;;4984083;28;112530;-67
2021/12/25 01:51:01;;;;;;;27.37;12.47;;;11.00;99.90;;;;;;4984431;28;112543;-67
2021/12/25 01:53:28;;;;;;;28.52;12.35;;;11.00;99.90;;;;;;4982987;28;113522;-68
2021/12/25 01:55:54;;;;;;;33.30;15.20;;;11.00;99.90;;;;;;4964792;28;112937;-67
2021/12/25 01:58:20;;;;;;;34.92;16.30;;;10.90;99.90;;;;;;4965742;28;112440;-67
2021/12/25 02:00:50;;;;;;;39.47;18.33;;;10.90;99.90;;;;;;4982230;28;112602;-67
2021/12/25 02:03:19;;;;;;;32.40;16.80;;;10.90;99.90;;;;;;4964873;28;116373;-68
2021/12/25 02:05:46;;;;;;;36.95;16.80;;;10.90;99.90;;;;;;4990133;22;114994;-71
2021/12/25 02:08:12;;;;;;;39.25;18.48;;;10.90;99.90;;;;;;4987057;28;112618;-68
2021/12/25 02:10:39;;;;;;;45.33;18.98;;;10.90;99.90;;;;;;5003047;28;112536;-69
2021/12/25 02:13:05;;;;;;;46.72;18.67;;;10.80;99.90;;;;;;4989257;28;113227;-68
2021/12/25 02:15:32;;;;;;;33.40;17.17;;;10.80;99.90;;;;;;4982013;28;113991;-70
2021/12/25 02:20:34;;;;;;;;;;;10.70;99.90;;;;;;4962971;28;112471;-67
2021/12/25 02:23:03;;;;;;;35.42;15.15;;;10.70;99.90;;;;;;4962435;28;116333;-66
2021/12/25 02:25:32;;;;;;;32.25;15.70;;;10.60;99.90;;;;;;5002458;28;113398;-66
2021/12/25 02:27:59;;;;;;;32.63;15.53;;;10.60;99.90;;;;;;5002399;28;112441;-66
2021/12/25 02:30:25;;;;;;;36.47;17.92;;;10.60;99.90;;;;;;5003165;28;112536;-67
2021/12/25 02:32:51;;;;;;;23.88;12.73;;;10.60;99.90;;;;;;4984879;28;113099;-66
2021/12/25 02:35:17;;;;;;;23.60;12.23;;;10.50;99.90;;;;;;5002496;28;112865;-66
2021/12/25 02:37:44;;;;;;;30.13;13.50;;;10.50;99.90;;;;;;5003044;28;112474;-66
2021/12/25 02:40:12;;;;;;;24.35;12.68;;;10.40;99.90;;;;;;4985117;28;112638;-67
2021/12/25 02:42:38;;;;;;;27.05;13.52;;;10.40;99.90;;;;;;5002347;28;113268;-66
2021/12/25 02:45:06;;;;;;;25.63;13.88;;;10.40;99.90;;;;;;5001447;28;113418;-66
2021/12/25 02:47:32;;;;;;;33.92;14.23;;;10.40;99.90;;;;;;5015686;22;112704;-67
2021/12/25 02:49:58;;;;;;;26.85;13.68;;;10.40;99.90;;;;;;4978515;28;112712;-69
2021/12/25 02:52:24;;;;;;;28.95;13.65;;;10.40;99.90;;;;;;5002132;28;113634;-69
2021/12/25 02:54:50;;;;;;;26.40;12.77;;;10.30;99.90;;;;;;4980056;28;115103;-70
2021/12/25 02:57:16;;;;;;;26.23;13.02;;;10.30;99.90;;;;;;4982970;28;112310;-69
2021/12/25 02:59:42;;;;;;;27.67;14.02;;;10.30;99.90;;;;;;4980889;28;112931;-69
2021/12/25 03:02:16;;;;;;;28.70;14.85;;;10.30;99.90;;;;;;4982226;28;113409;-68
2021/12/25 03:04:45;;;;;;;32.25;14.27;;;10.30;99.90;;;;;;4982108;28;113892;-69
2021/12/25 03:07:12;;;;;;;27.93;14.17;;;10.20;99.90;;;;;;5002523;28;112782;-69
2021/12/25 03:09:40;;;;;;;29.48;14.32;;;10.20;99.90;;;;;;5001114;28;112765;-68
2021/12/25 03:12:08;;;;;;;34.05;14.00;;;10.20;99.90;;;;;;4984909;28;113541;-69
2021/12/25 03:15:01;;;;;;;27.27;12.55;;;10.10;99.90;;;;;;5003507;28;113125;-68
2021/12/25 03:17:26;;;;;;;25.38;12.70;;;10.10;99.90;;;;;;4991145;28;112681;-69
2021/12/25 03:19:54;;;;;;;28.58;13.73;;;10.20;99.90;;;;;;5006335;28;112285;-69
2021/12/25 03:22:20;;;;;;;25.33;12.70;;;10.20;99.90;;;;;;5005270;28;114249;-70
2021/12/25 03:24:46;;;;;;;27.92;13.13;;;10.30;99.90;;;;;;5005299;28;112940;-68
2021/12/25 03:27:11;;;;;;;30.52;13.95;;;10.30;99.90;;;;;;5006316;28;112443;-69
2021/12/25 03:29:40;;;;;;;28.05;12.30;;;10.30;99.90;;;;;;5005759;28;112434;-68
2021/12/25 03:32:07;;;;;;;26.98;13.50;;;10.40;99.90;;;;;;5005019;28;112961;-68
2021/12/25 03:34:33;;;;;;;31.15;11.52;;;10.40;99.90;;;;;;5003086;28;112750;-69
2021/12/25 03:36:59;;;;;;;27.35;12.00;;;10.50;99.90;;;;;;5005376;28;112992;-69
2021/12/25 03:39:25;;;;;;;30.95;12.38;;;10.50;99.90;;;;;;5005507;28;113013;-68
2021/12/25 03:41:51;;;;;;;26.42;12.18;;;10.50;99.90;;;;;;5004327;28;112889;-68
2021/12/25 03:44:17;;;;;;;30.70;12.63;;;10.50;99.90;;;;;;5004623;28;112616;-69
2021/12/25 03:46:43;;;;;;;23.77;13.35;;;10.50;99.90;;;;;;4999316;28;112769;-71
2021/12/25 03:49:25;;;;;;;26.20;13.00;;;10.50;99.90;;;;;;4985503;28;112666;-69
2021/12/25 03:57:41;;;;;;;29.65;13.07;;;10.50;99.90;;;;;;4986243;28;113491;-69
2021/12/25 04:00:13;;;;;;;20.65;11.27;;;10.50;99.90;;;;;;4985003;28;112427;-69
2021/12/25 04:02:53;;;;;;;29.38;12.88;;;10.50;99.90;;;;;;4984435;28;113644;-70
2021/12/25 04:05:24;;;;;;;26.02;12.00;;;10.50;99.90;;;;;;4984238;28;114154;-66
2021/12/25 04:10:16;;;;;;;27.30;12.98;;;10.50;99.90;;;;;;4985251;28;112543;-67
2021/12/25 04:12:42;;;;;;;28.77;12.00;;;10.50;99.90;;;;;;4984520;28;113126;-69
2021/12/25 04:15:08;;;;;;;25.17;12.77;;;10.50;99.90;;;;;;4984113;28;112807;-69
2021/12/25 04:17:34;;;;;;;32.38;14.02;;;10.50;99.90;;;;;;4985053;28;112459;-68
2021/12/25 04:20:03;;;;;;;25.30;12.32;;;10.50;99.90;;;;;;4951011;28;112562;-68
2021/12/25 04:22:31;;;;;;;23.55;12.57;;;10.50;99.90;;;;;;4984210;28;113590;-69
2021/12/25 04:24:57;;;;;;;26.35;12.23;;;10.50;99.90;;;;;;4983601;28;113044;-69
2021/12/25 04:27:23;;;;;;;28.83;14.27;;;10.50;99.90;;;;;;4967496;28;112462;-67
2021/12/25 04:30:00;;;;;;;27.90;13.77;;;10.40;99.90;;;;;;4967193;28;112432;-69
2021/12/25 05:02:52;;;;;;;21.10;10.50;;;10.50;99.90;;;;;;4985975;28;112322;-65
2021/12/25 05:05:19;;;;;;;23.77;11.50;;;10.50;99.90;;;;;;4983379;28;113742;-66
2021/12/25 05:07:45;;;;;;;25.40;11.40;;;10.50;99.90;;;;;;4983682;28;113630;-65
2021/12/25 05:10:11;;;;;;;24.67;13.18;;;10.50;99.90;;;;;;4966283;28;112412;-66
2021/12/25 05:12:36;;;;;;;14.43;8.18;;;10.50;99.90;;;;;;4986123;28;112850;-67
2021/12/25 05:15:03;;;;;;;12.77;6.80;;;10.50;99.90;;;;;;5003549;28;112873;-66
2021/12/25 05:17:32;;;;;;;16.35;8.88;;;10.50;99.90;;;;;;5002863;28;113474;-66
2021/12/25 05:19:59;;;;;;;19.55;9.40;;;10.50;99.90;;;;;;5004803;28;112735;-67
2021/12/25 05:22:25;;;;;;;16.38;7.25;;;10.50;99.90;;;;;;4986939;28;112737;-66
2021/12/25 05:24:51;;;;;;;14.85;8.15;;;10.50;99.90;;;;;;5004197;28;114155;-67
2021/12/25 05:27:18;;;;;;;22.48;8.18;;;10.50;99.90;;;;;;5003020;28;114347;-66
2021/12/25 05:29:46;;;;;;;13.55;7.40;;;10.40;99.90;;;;;;5004095;28;112774;-66
2021/12/25 05:32:17;;;;;;;23.15;9.07;;;10.40;99.90;;;;;;5004801;28;112602;-67
2021/12/25 05:34:43;;;;;;;15.70;8.18;;;10.40;99.90;;;;;;5002634;28;115053;-67
2021/12/25 05:37:09;;;;;;;16.58;8.52;;;10.40;99.90;;;;;;5003500;28;112815;-66
2021/12/25 05:39:35;;;;;;;22.48;9.88;;;10.40;99.90;;;;;;5004435;28;112482;-65
2021/12/25 05:42:01;;;;;;;21.67;10.32;;;10.40;99.90;;;;;;5003907;28;112538;-67
2021/12/25 05:44:27;;;;;;;17.02;9.40;;;10.40;99.90;;;;;;5002752;28;113255;-67
2021/12/25 05:46:53;;;;;;;20.08;9.77;;;10.40;99.90;;;;;;5002724;28;113608;-67
2021/12/25 05:49:20;;;;;;;14.27;9.18;;;10.40;99.90;;;;;;4962688;28;112940;-68
2021/12/25 05:51:46;;;;;;;18.67;9.60;;;10.40;99.90;;;;;;4964982;28;112910;-68
2021/12/25 05:54:12;;;;;;;16.17;8.52;;;10.50;99.90;;;;;;4963088;28;114341;-67
2021/12/25 05:56:38;;;;;;;18.30;9.48;;;10.40;99.90;;;;;;4963724;28;113489;-67
2021/12/25 05:59:07;;;;;;;24.17;9.25;;;10.50;99.90;;;;;;4974259;22;112927;-70
2021/12/25 06:01:32;;;;;;;21.77;9.48;;;10.50;99.90;;;;;;4967895;28;112698;-68
2021/12/25 06:03:58;;;;;;;26.30;10.10;;;10.50;99.90;;;;;;4949470;28;113132;-68
2021/12/25 06:06:25;;;;;;;14.82;8.00;;;10.60;99.90;;;;;;4981837;28;112609;-69
2021/12/25 06:08:50;;;;;;;17.55;9.05;;;10.60;99.90;;;;;;4983562;28;112712;-69
2021/12/25 06:11:17;;;;;;;17.80;9.48;;;10.60;99.90;;;;;;4984425;28;112379;-70
2021/12/25 06:13:55;;;;;;;14.35;8.63;;;10.60;99.90;;;;;;4983003;28;114446;-69
2021/12/25 06:16:21;;;;;;;18.85;8.23;;;10.70;99.90;;;;;;4983093;28;113813;-69
2021/12/25 06:18:48;;;;;;;14.32;8.40;;;10.60;99.90;;;;;;4984170;28;112616;-70
2021/12/25 06:21:13;;;;;;;18.73;9.00;;;10.70;99.90;;;;;;4984065;28;112502;-68
2021/12/25 06:23:42;;;;;;;18.27;8.27;;;10.70;99.90;;;;;;4983020;28;114660;-70
2021/12/25 06:26:08;;;;;;;16.50;7.88;;;10.70;99.90;;;;;;4963545;28;113892;-69
2021/12/25 06:28:33;;;;;;;15.75;8.02;;;10.70;99.90;;;;;;4983631;28;112388;-68
2021/12/25 06:30:59;;;;;;;18.55;8.88;;;10.70;99.90;;;;;;4982835;28;112451;-69
2021/12/25 06:33:25;;;;;;;14.70;7.90;;;10.70;99.90;;;;;;4982980;28;113217;-69
2021/12/25 06:35:51;;;;;;;14.15;7.78;;;10.70;99.90;;;;;;4998534;22;114467;-65
2021/12/25 06:38:17;;;;;;;15.73;7.80;;;10.80;99.90;;;;;;4962784;28;112598;-66
2021/12/25 06:40:42;;;;;;;15.68;8.63;;;10.80;99.90;;;;;;4983957;28;112273;-67
2021/12/25 06:43:08;;;;;;;21.02;8.48;;;10.80;99.90;;;;;;4964470;28;114060;-66
2021/12/25 06:45:34;;;;;;;17.13;7.95;;;10.80;99.90;;;;;;4983150;28;112840;-67
2021/12/25 06:48:00;;;;;;;17.23;8.57;;;10.80;99.90;;;;;;4968978;28;112821;-66
2021/12/25 06:50:26;;;;;;;13.77;7.82;;;10.80;99.90;;;;;;4968930;28;112711;-67
2021/12/25 06:52:51;;;;;;;21.55;9.02;;;10.80;99.90;;;;;;4986605;28;114089;-67
2021/12/25 06:55:17;;;;;;;13.98;7.75;;;10.80;99.90;;;;;;4985665;28;112898;-66
2021/12/25 06:57:51;;;;;;;14.90;7.93;;;10.80;99.90;;;;;;4987145;28;112506;-66
2021/12/25 07:00:17;;;;;;;15.48;8.35;;;10.80;99.90;;;;;;4986769;28;112357;-65
2021/12/25 07:02:43;;;;;;;13.93;7.72;;;10.80;99.90;;;;;;4985891;28;113637;-66
2021/12/25 07:05:09;;;;;;;20.23;8.68;;;10.80;99.90;;;;;;4985286;28;113480;-66
2021/12/25 07:07:35;;;;;;;16.92;9.70;;;10.80;99.90;;;;;;4986779;28;112475;-67
2021/12/25 07:10:01;;;;;;;15.70;9.07;;;10.90;99.90;;;;;;4968671;28;112605;-68
2021/12/25 07:12:28;;;;;;;17.38;8.55;;;10.90;99.90;;;;;;4986198;28;114471;-66
2021/12/25 07:14:53;;;;;;;14.77;8.73;;;10.80;99.90;;;;;;4951300;28;113721;-67
2021/12/25 07:17:19;;;;;;;15.63;8.40;;;10.80;99.90;;;;;;4986016;28;112398;-67
2021/12/25 07:19:45;;;;;;;17.33;8.18;;;10.80;99.90;;;;;;4985433;28;112525;-66
2021/12/25 07:22:12;;;;;;;15.48;8.35;;;10.80;99.90;;;;;;4985807;28;113640;-66
2021/12/25 07:24:40;;;;;;;17.85;8.18;;;10.80;99.90;;;;;;4986538;28;112649;-66
2021/12/25 07:27:06;;;;;;;17.40;8.27;;;10.80;99.90;;;;;;4986384;28;113662;-66
2021/12/25 07:29:32;;;;;;;16.67;7.85;;;10.80;99.90;;;;;;4985964;28;112473;-66
2021/12/25 07:31:58;;;;;;;14.02;7.38;;;10.80;99.90;;;;;;4967202;28;117116;-66
2021/12/25 07:34:23;;;;;;;11.63;7.18;;;10.80;99.90;;;;;;4985974;28;112838;-65
2021/12/25 07:36:49;;;;;;;20.35;9.45;;;10.80;99.90;;;;;;4968266;28;112755;-67
2021/12/25 07:39:15;;;;;;;15.55;8.00;;;10.80;99.90;;;;;;4968492;28;112883;-66
2021/12/25 07:41:41;;;;;;;18.13;8.43;;;10.80;99.90;;;;;;4985700;28;112980;-66
2021/12/25 07:44:07;;;;;;;16.80;8.13;;;10.80;99.90;;;;;;4984649;28;113703;-66
2021/12/25 07:46:33;;;;;;;13.68;8.48;;;10.80;99.90;;;;;;4968636;28;112452;-66
2021/12/25 07:48:59;;;;;;;16.63;7.60;;;10.80;99.90;;;;;;4986580;28;114507;-66
2021/12/25 07:51:25;;;;;;;18.25;8.65;;;10.80;99.90;;;;;;4967501;28;115819;-66
2021/12/25 07:53:51;;;;;;;11.77;7.32;;;10.90;99.90;;;;;;4985104;28;113417;-66
2021/12/25 07:56:17;;;;;;;13.38;7.45;;;10.90;99.90;;;;;;4985700;28;112539;-66
2021/12/25 07:58:43;;;;;;;13.15;7.13;;;10.90;99.90;;;;;;4985000;28;112642;-65
2021/12/25 08:01:10;;;;;;;14.93;8.45;;;10.90;99.90;;;;;;4985194;28;113310;-66
2021/12/25 08:03:36;;;;;;;18.85;7.18;;;10.90;99.90;;;;;;4985100;28;113228;-66
2021/12/25 08:06:03;;;;;;;12.38;7.40;;;11.00;99.90;;;;;;4985365;28;112634;-65
2021/12/25 08:08:29;;;;;;;11.65;7.28;;;11.00;99.90;;;;;;4985022;28;112957;-66
2021/12/25 08:10:56;;;;;;;13.80;6.75;;;11.00;99.90;;;;;;4984575;28;114125;-67
2021/12/25 08:13:22;;;;;;;11.23;7.20;;;11.00;99.90;;;;;;4985148;28;113042;-67
2021/12/25 08:15:48;;;;;;;13.32;7.93;;;11.00;99.90;;;;;;4983988;28;112817;-66
2021/12/25 08:18:16;;;;;;;9.57;6.43;;;11.00;99.90;;;;;;5005529;28;112553;-65
2021/12/25 08:20:42;;;;;;;11.75;6.88;;;11.00;99.90;;;;;;5004677;28;113039;-66
2021/12/25 08:23:09;;;;;;;10.90;6.60;;;11.10;99.90;;;;;;4986650;28;112863;-65
2021/12/25 08:25:35;;;;;;;12.68;6.88;;;11.10;99.90;;;;;;5005542;28;112585;-66
2021/12/25 08:28:01;;;;;;;10.68;6.53;;;11.20;99.90;;;;;;5005529;28;112485;-63
2021/12/25 08:30:27;;;;;;;12.90;7.30;;;11.20;99.90;;;;;;4986235;28;113473;-64
2021/12/25 08:32:59;;;;;;;13.82;7.13;;;11.30;99.90;;;;;;4984939;28;112455;-65
2021/12/25 08:35:28;;;;;;;18.13;8.27;;;11.30;99.90;;;;;;4985640;28;112648;-67
2021/12/25 08:37:54;;;;;;;12.60;7.93;;;11.30;99.90;;;;;;4984907;28;112571;-67
2021/12/25 08:40:23;;;;;;;12.52;6.47;;;11.40;99.90;;;;;;5012688;22;113627;-70
2021/12/25 08:42:53;;;;;;;15.18;7.35;;;11.40;99.90;;;;;;4965514;28;114058;-70
2021/12/25 08:45:44;;;;;;;9.35;6.03;;;11.40;99.90;;;;;;4984885;28;112495;-71
2021/12/25 08:48:28;;;;;;;8.40;5.78;;;11.30;99.90;;;;;;4969897;28;112776;-70
2021/12/25 08:50:57;;;;;;;11.25;6.07;;;11.30;99.90;;;;;;4982185;28;116104;-70
2021/12/25 08:53:24;;;;;;;14.25;6.07;;;11.30;99.90;;;;;;4965108;28;116177;-70
2021/12/25 08:55:52;;;;;;;11.10;7.18;;;11.30;99.90;;;;;;4989349;28;112525;-68
2021/12/25 08:58:18;;;;;;;10.48;5.80;;;11.30;99.90;;;;;;4967467;28;112995;-68
2021/12/25 09:00:45;;;;;;;12.68;6.32;;;11.30;99.90;;;;;;4967905;28;116225;-69
2021/12/25 09:03:11;;;;;;;21.02;6.82;;;11.30;99.90;;;;;;4976410;28;112512;-71
2021/12/25 09:05:37;;;;;;;15.13;7.60;;;11.40;99.90;;;;;;4971666;28;112702;-69
2021/12/25 09:08:03;;;;;;;10.02;6.30;;;11.40;99.90;;;;;;4963142;28;112756;-70
2021/12/25 09:10:29;;;;;;;13.23;7.15;;;11.40;99.90;;;;;;4963700;28;113813;-68
2021/12/25 09:12:56;;;;;;;13.27;8.73;;;11.40;99.90;;;;;;4984156;28;113458;-70
2021/12/25 09:15:23;;;;;;;16.05;8.63;;;11.50;99.90;;;;;;5023153;22;114564;-68
2021/12/25 09:17:48;;;;;;;10.50;7.68;;;11.50;99.90;;;;;;4960568;28;112564;-66
2021/12/25 09:20:19;;;;;;;13.43;7.60;;;11.60;99.90;;;;;;4963471;28;114179;-67
2021/12/25 09:22:49;;;;;;;14.68;8.25;;;11.60;99.90;;;;;;4961818;28;112908;-71
2021/12/25 09:25:15;;;;;;;12.95;8.88;;;11.70;99.90;;;;;;4983256;28;112432;-67
2021/12/25 09:27:42;;;;;;;12.25;8.13;;;11.70;99.90;;;;;;4966841;28;114664;-67
2021/12/25 09:30:08;;;;;;;12.68;8.32;;;11.80;99.90;;;;;;4960219;28;114916;-66
2021/12/25 09:32:34;;;;;;;9.88;5.82;;;11.90;99.90;;;;;;4966837;28;113057;-69
2021/12/25 09:35:00;;;;;;;9.00;5.03;;;11.90;99.90;;;;;;4959788;28;112427;-69
2021/12/25 09:37:27;;;;;;;14.25;6.90;;;12.00;99.90;;;;;;4952266;28;112645;-67
2021/12/25 09:39:54;;;;;;;13.57;5.82;;;12.00;99.90;;;;;;4962307;28;113666;-67
2021/12/25 09:42:23;;;;;;;9.13;5.63;;;12.00;99.90;;;;;;4954949;28;112698;-67
2021/12/25 09:44:49;;;;;;;8.47;5.50;;;12.10;99.90;;;;;;4958440;28;114165;-68
2021/12/25 09:47:15;;;;;;;10.35;5.20;;;12.20;99.90;;;;;;4962914;28;112809;-67
2021/12/25 09:49:41;;;;;;;9.73;5.35;;;12.20;99.90;;;;;;4961831;28;113674;-66
2021/12/25 09:52:06;;;;;;;13.55;6.05;;;12.30;99.90;;;;;;4961117;28;112650;-69
2021/12/25 09:54:33;;;;;;;11.13;7.10;;;12.40;99.90;;;;;;4945925;28;112682;-69
2021/12/25 09:56:59;;;;;;;10.07;5.90;;;12.50;99.90;;;;;;4946549;28;112795;-68
2021/12/25 09:59:25;;;;;;;14.13;5.93;;;12.60;99.90;;;;;;4963609;28;112927;-69
2021/12/25 10:01:56;;;;;;;10.10;6.20;;;12.70;99.90;;;;;;4961177;28;112689;-67
2021/12/25 10:04:38;;;;;;;13.88;6.72;;;12.80;99.90;;;;;;4946946;28;112513;-65
2021/12/25 10:07:31;;;;;;;15.88;6.72;;;12.80;99.90;;;;;;4970469;28;112676;-67
2021/12/25 10:10:16;;;;;;;9.20;5.75;;;12.90;99.90;;;;;;4933929;28;113028;-67
2021/12/25 10:12:48;;;;;;;7.75;5.50;;;12.90;99.90;;;;;;4953834;28;114418;-65
2021/12/25 10:15:16;;;;;;;11.32;6.85;;;13.00;99.90;;;;;;4963210;28;112534;-66
2021/12/25 10:17:52;;;;;;;9.82;6.63;;;13.20;99.90;;;;;;4962511;28;112711;-66
2021/12/25 10:20:23;;;;;;;9.20;6.05;;;13.30;99.90;;;;;;4955315;28;114318;-65
2021/12/25 10:23:11;;;;;;;11.32;6.40;;;13.40;99.90;;;;;;4958917;28;114640;-66
2021/12/25 10:25:50;;;;;;;12.20;7.82;;;13.50;99.90;;;;;;4964368;28;113076;-66
2021/12/25 10:28:19;;;;;;;12.77;7.65;;;13.60;99.90;;;;;;4964748;28;112490;-69
2021/12/25 10:30:48;;;;;;;13.13;7.60;;;13.70;99.90;;;;;;4966535;28;113046;-69
2021/12/25 10:33:31;;;;;;;10.75;6.75;;;13.80;99.90;;;;;;4995489;23;114795;-68
2021/12/25 10:36:08;;;;;;;12.98;7.97;;;13.90;99.90;;;;;;5013616;28;112559;-66
2021/12/25 10:38:34;;;;;;;14.70;8.30;;;13.90;99.90;;;;;;5015821;28;112568;-66
2021/12/25 10:41:20;;;;;;;14.75;7.65;;;14.00;99.90;;;;;;5026253;28;113155;-67
2021/12/25 10:43:48;;;;;;;11.52;8.23;;;14.10;99.90;;;;;;5025335;28;114347;-71
2021/12/25 10:46:14;;;;;;;13.07;7.85;;;14.20;99.90;;;;;;4997042;22;112765;-69
2021/12/25 10:48:40;;;;;;;12.93;7.22;;;14.30;99.90;;;;;;4988123;28;112680;-69
2021/12/25 10:51:26;;;;;;;14.98;7.53;;;14.40;99.90;;;;;;4986780;28;115340;-71
2021/12/25 10:53:53;;;;;;;16.60;8.52;;;14.50;99.90;;;;;;5004904;28;113512;-65
2021/12/25 10:56:20;;;;;;;20.58;9.93;;;14.60;99.90;;;;;;5003369;28;112571;-68
2021/12/25 10:58:47;;;;;;;18.38;9.70;;;14.70;99.90;;;;;;5006087;28;112556;-68
2021/12/25 11:01:15;;;;;;;20.55;9.75;;;14.70;99.90;;;;;;5004063;28;114658;-67
2021/12/25 11:03:44;;;;;;;23.60;11.60;;;14.70;99.90;;;;;;4993978;28;113283;-65
2021/12/25 11:06:16;;;;;;;15.93;10.23;;;14.70;99.90;;;;;;4987479;28;112540;-69
2021/12/25 11:08:42;;;;;;;20.17;10.50;;;14.80;99.90;;;;;;5004366;28;113072;-68
2021/12/25 11:11:20;;;;;;;23.05;10.80;;;14.80;99.90;;;;;;5002846;28;112513;-68
2021/12/25 11:13:51;;;;;;;17.98;10.07;;;14.90;99.90;;;;;;5000735;28;113585;-68
2021/12/25 11:19:29;;;;;;;12.70;6.68;;;15.10;99.90;;;;;;5004867;28;112534;-70
2021/12/25 11:21:49;;;;;;;12.35;7.00;;;15.10;99.90;;;;;;5002861;28;114489;-67
2021/12/25 11:24:16;;;;;;;12.50;6.72;;;15.00;99.90;;;;;;5002093;28;114035;-69
2021/12/25 11:26:45;;;;;;;10.15;6.68;;;15.20;99.90;;;;;;5001063;28;112523;-67
2021/12/25 11:29:13;;;;;;;11.23;6.73;;;15.20;99.90;;;;;;5004845;28;112594;-68
2021/12/25 11:31:40;;;;;;;12.02;6.85;;;15.20;99.90;;;;;;4994750;28;114828;-67
2021/12/25 11:34:10;;;;;;;12.63;7.15;;;15.30;99.90;;;;;;5003702;28;114681;-68
2021/12/25 11:36:41;;;;;;;11.90;7.15;;;15.40;99.90;;;;;;5005412;28;112362;-68
2021/12/25 11:39:07;;;;;;;15.45;7.38;;;15.40;99.90;;;;;;5005320;28;112561;-69
2021/12/25 11:41:35;;;;;;;17.67;7.78;;;15.40;99.90;;;;;;5003020;28;113469;-68
2021/12/25 11:44:06;;;;;;;21.02;9.52;;;15.40;99.90;;;;;;4985088;28;115338;-69
2021/12/25 11:46:45;;;;;;;23.15;10.40;;;15.50;99.90;;;;;;5004635;28;112561;-66
2021/12/25 11:49:14;;;;;;;20.40;9.70;;;15.50;99.90;;;;;;5004909;28;112455;-68
2021/12/25 11:51:43;;;;;;;19.17;9.50;;;15.50;99.90;;;;;;5003970;28;114292;-66
2021/12/25 11:57:46;;;;;;;27.00;10.55;;;15.60;99.90;;;;;;5001646;28;112386;-66
2021/12/25 11:59:56;;;;;;;18.45;9.48;;;15.60;99.90;;;;;;4999346;28;112498;-65
2021/12/25 12:02:43;;;;;;;18.38;8.00;;;15.80;99.90;;;;;;5005455;28;113047;-68
2021/12/25 12:05:29;;;;;;;15.45;8.57;;;15.90;99.90;;;;;;5010084;28;113570;-66
2021/12/25 12:07:59;;;;;;;16.02;7.25;;;16.00;99.90;;;;;;5006357;28;112677;-67
2021/12/25 12:11:00;;;;;;;13.00;7.93;;;16.00;99.90;;;;;;5005982;28;112902;-68
2021/12/25 12:13:30;;;;;;;11.40;6.85;;;16.10;99.90;;;;;;4928888;28;113235;-68
2021/12/25 12:16:00;;;;;;;15.75;7.22;;;16.10;99.90;;;;;;4998963;28;112842;-68
2021/12/25 12:18:31;;;;;;;12.52;6.97;;;16.10;99.90;;;;;;5011200;28;114253;-68
2021/12/25 12:21:07;;;;;;;17.55;8.80;;;16.10;99.90;;;;;;5012892;28;112582;-66
2021/12/25 12:26:13;;;;;;;14.68;8.10;;;16.30;99.90;;;;;;5008325;28;112777;-68
2021/12/25 12:28:42;;;;;;;17.77;9.23;;;16.50;99.90;;;;;;5010114;28;112663;-68
2021/12/25 12:31:08;;;;;;;17.77;9.15;;;16.60;99.90;;;;;;5007216;28;112814;-68
2021/12/25 12:33:35;;;;;;;21.33;10.93;;;16.80;99.90;;;;;;5003311;28;114546;-69
2021/12/25 12:36:03;;;;;;;18.52;10.23;;;17.00;99.90;;;;;;4992041;28;112568;-67
2021/12/25 12:38:36;;;;;;;22.70;10.43;;;17.30;99.90;;;;;;5008524;28;112711;-69
2021/12/25 12:41:31;;;;;;;17.40;10.40;;;17.60;99.90;;;;;;5008430;28;112893;-69
2021/12/25 12:44:03;;;;;;;20.60;10.73;;;18.00;99.90;;;;;;5025462;27;116571;-67
2021/12/25 12:47:26;;;;;;;20.15;9.05;;;18.50;99.90;;;;;;4983278;28;115397;-68
2021/12/25 12:49:54;;;;;;;16.75;9.48;;;19.90;99.90;;;;;;4934803;28;113227;-67
2021/12/25 12:52:28;;;;;;;15.45;8.75;;;21.20;99.90;;;;;;4999183;28;115252;-68
2021/12/25 12:54:56;;;;;;;14.82;8.02;;;22.00;99.90;;;;;;5007983;28;114689;-68
2021/12/25 12:57:31;;;;;;;13.55;9.07;;;22.90;99.90;;;;;;5011530;28;113039;-68
2021/12/25 13:00:25;;;;;;;17.48;8.40;;;24.00;99.90;;;;;;5004655;28;112819;-67
2021/12/25 13:02:54;;;;;;;18.60;9.18;;;25.10;99.90;;;;;;4984798;28;114478;-65
2021/12/25 13:05:38;;;;;;;20.40;8.95;;;25.70;98.30;;;;;;5000761;28;113267;-66
2021/12/25 13:08:20;;;;;;;26.33;9.70;;;25.50;93.40;;;;;;4996095;28;112654;-67
2021/12/25 13:11:02;;;;;;;21.52;8.68;;;25.00;92.70;;;;;;4998534;28;113416;-67
2021/12/25 13:13:34;;;;;;;22.70;9.98;;;24.70;92.30;;;;;;4998753;28;112663;-71
2021/12/25 13:16:06;;;;;;;21.67;9.75;;;24.40;92.70;;;;;;4983043;28;115855;-70
2021/12/25 13:18:35;;;;;;;36.53;10.88;;;24.00;93.40;;;;;;5003591;28;113102;-68
2021/12/25 13:21:07;;;;;;;28.05;10.27;;;23.90;94.00;;;;;;5000182;28;112550;-68
2021/12/25 13:23:46;;;;;;;25.17;9.85;;;23.70;94.00;;;;;;5001113;28;112482;-71
2021/12/25 13:26:14;;;;;;;25.17;11.70;;;23.50;93.40;;;;;;5001804;28;114286;-73
2021/12/25 13:28:42;;;;;;;28.00;11.00;;;23.30;94.20;;;;;;5001058;28;113435;-70
2021/12/25 13:31:29;;;;;;;28.30;10.95;;;23.10;94.10;;;;;;4984554;28;114157;-71
2021/12/25 13:34:03;;;;;;;26.50;10.38;;;23.00;94.50;;;;;;5001294;28;112664;-70
2021/12/25 13:36:33;;;;;;;27.90;10.65;;;23.00;94.90;;;;;;5000923;28;113751;-70
2021/12/25 13:39:07;;;;;;;31.08;11.00;;;23.10;94.50;;;;;;5000948;28;113577;-70
2021/12/25 13:41:42;;;;;;;27.80;11.45;;;23.50;94.00;;;;;;4992473;28;112284;-69
2021/12/25 13:44:17;;;;;;;39.80;12.70;;;23.50;92.50;;;;;;4982837;28;112663;-70
2021/12/25 13:46:51;;;;;;;43.30;13.10;;;23.50;92.60;;;;;;4978139;28;113631;-70
2021/12/25 13:49:35;;;;;;;45.72;13.13;;;23.70;93.10;;;;;;4999912;28;112575;-70
2021/12/25 13:52:21;;;;;;;41.55;11.85;;;24.90;93.70;;;;;;4999821;28;112783;-69
2021/12/25 13:54:57;;;;;;;36.67;13.18;;;26.40;91.50;;;;;;4983374;28;112758;-70
2021/12/25 13:57:25;;;;;;;43.15;14.45;;;27.90;89.00;;;;;;4999691;28;112997;-69